createdAt,value
2018-06-05T00:00:33.327Z,9.00
2018-06-05T00:03:02.206Z,9.27
2018-06-05T00:05:31.153Z,20.40
2018-06-05T00:08:00.012Z,9.03
2018-06-05T00:10:28.886Z,10.77
2018-06-05T00:12:57.790Z,10.23
2018-06-05T00:15:26.650Z,15.00
2018-06-05T00:17:55.526Z,8.97
2018-06-05T00:20:24.401Z,8.47
2018-06-05T00:22:53.298Z,12.73
2018-06-05T00:25:22.784Z,9.97
2018-06-05T00:27:51.712Z,10.03
2018-06-05T00:30:20.558Z,7.73
2018-06-05T00:32:49.420Z,8.30
2018-06-05T00:35:19.289Z,8.37
2018-06-05T00:37:48.162Z,8.23
2018-06-05T00:40:17.026Z,10.03
2018-06-05T00:42:45.914Z,8.67
2018-06-05T00:45:15.174Z,10.53
2018-06-05T00:47:44.094Z,11.67
2018-06-05T00:50:13.041Z,9.23
2018-06-05T00:52:41.971Z,10.20
2018-06-05T00:55:10.861Z,10.13
2018-06-05T00:57:39.857Z,9.60
2018-06-05T01:00:08.689Z,9.13
2018-06-05T01:02:37.606Z,8.83
2018-06-05T01:05:06.470Z,7.43
2018-06-05T01:07:35.444Z,9.13
2018-06-05T01:10:04.741Z,9.87
2018-06-05T01:12:33.574Z,11.30
2018-06-05T01:15:02.514Z,10.80
2018-06-05T01:17:31.414Z,8.97
2018-06-05T01:20:00.306Z,12.33
2018-06-05T01:22:29.398Z,10.87
2018-06-05T01:24:58.292Z,8.93
2018-06-05T01:27:27.154Z,9.57
2018-06-05T01:29:55.810Z,9.77
2018-06-05T01:32:24.529Z,7.73
2018-06-05T01:34:53.192Z,7.93
2018-06-05T01:37:21.935Z,8.37
2018-06-05T01:39:50.796Z,9.70
2018-06-05T01:42:19.656Z,7.83
2018-06-05T01:44:48.539Z,8.40
2018-06-05T01:47:17.542Z,7.57
2018-06-05T01:49:46.424Z,7.97
2018-06-05T01:52:15.650Z,8.43
2018-06-05T01:54:44.516Z,8.50
2018-06-05T01:57:13.438Z,8.60
2018-06-05T01:59:42.332Z,7.57
2018-06-05T02:02:11.187Z,8.57
2018-06-05T02:04:40.082Z,7.63
2018-06-05T02:07:08.960Z,9.77
2018-06-05T02:09:37.918Z,7.93
2018-06-05T02:12:06.758Z,9.33
2018-06-05T02:14:35.685Z,8.17
2018-06-05T02:17:04.546Z,9.17
2018-06-05T02:19:33.444Z,10.43
2018-06-05T02:22:02.318Z,6.73
2018-06-05T02:24:31.186Z,7.00
2018-06-05T02:27:00.106Z,10.83
2018-06-05T02:29:28.974Z,8.37
2018-06-05T02:31:57.846Z,9.33
2018-06-05T02:34:26.690Z,8.60
2018-06-05T02:36:55.562Z,8.57
2018-06-05T02:39:24.422Z,6.97
2018-06-05T02:41:53.362Z,8.60
2018-06-05T02:44:22.277Z,7.83
2018-06-05T02:46:51.257Z,7.17
2018-06-05T02:49:20.110Z,8.40
2018-06-05T02:51:49.004Z,7.40
2018-06-05T02:54:17.853Z,8.73
2018-06-05T02:56:46.830Z,10.47
2018-06-05T02:59:15.676Z,8.07
2018-06-05T03:01:44.595Z,6.70
2018-06-05T03:04:13.455Z,9.37
2018-06-05T03:06:42.386Z,9.40
2018-06-05T03:09:11.251Z,9.50
2018-06-05T03:11:40.215Z,8.20
2018-06-05T03:14:09.139Z,7.80
2018-06-05T03:16:38.827Z,10.50
2018-06-05T03:19:07.738Z,7.10
2018-06-05T03:21:36.642Z,8.43
2018-06-05T03:24:05.625Z,7.93
2018-06-05T03:26:34.494Z,8.17
2018-06-05T03:29:03.367Z,8.20
2018-06-05T03:31:32.285Z,7.63
2018-06-05T03:34:01.177Z,8.83
2018-06-05T03:36:30.057Z,5.87
2018-06-05T03:38:58.914Z,9.10
2018-06-05T03:41:27.601Z,5.87
2018-06-05T03:43:56.369Z,6.63
2018-06-05T03:46:25.226Z,6.63
2018-06-05T03:48:54.106Z,6.47
2018-06-05T03:51:22.951Z,7.07
2018-06-05T03:53:51.842Z,7.60
2018-06-05T03:56:20.717Z,5.53
2018-06-05T03:58:49.630Z,7.73
2018-06-05T04:01:18.906Z,7.73
2018-06-05T04:03:47.822Z,6.80
2018-06-05T04:06:16.724Z,8.93
2018-06-05T04:08:46.100Z,8.87
2018-06-05T04:11:14.737Z,7.20
2018-06-05T04:13:43.494Z,7.17
2018-06-05T04:16:12.526Z,6.57
2018-06-05T04:18:41.507Z,9.47
2018-06-05T04:21:10.458Z,8.40
2018-06-05T04:23:39.315Z,7.30
2018-06-05T04:26:08.150Z,7.40
2018-06-05T04:28:37.010Z,6.80
2018-06-05T04:31:05.881Z,7.20
2018-06-05T04:33:35.154Z,6.70
2018-06-05T04:36:04.067Z,7.63
2018-06-05T04:38:32.960Z,8.33
2018-06-05T04:41:01.820Z,8.60
2018-06-05T04:43:30.675Z,8.03
2018-06-05T04:45:59.724Z,8.93
2018-06-05T04:48:28.605Z,7.90
2018-06-05T04:50:57.438Z,8.37
2018-06-05T04:53:26.506Z,8.57
2018-06-05T04:55:57.061Z,8.30
2018-06-05T04:58:25.918Z,7.40
2018-06-05T05:00:54.820Z,8.33
2018-06-05T05:03:23.775Z,8.10
2018-06-05T05:05:52.575Z,8.00
2018-06-05T05:08:21.529Z,8.67
2018-06-05T05:10:50.446Z,10.77
2018-06-05T05:13:20.161Z,8.13
2018-06-05T05:15:48.994Z,8.17
2018-06-05T05:18:17.908Z,11.60
2018-06-05T05:20:46.777Z,7.93
2018-06-05T05:23:15.807Z,10.00
2018-06-05T05:25:44.635Z,10.43
2018-06-05T05:28:13.278Z,6.47
2018-06-05T05:30:42.123Z,8.40
2018-06-05T05:33:11.616Z,7.83
2018-06-05T05:35:40.922Z,10.57
2018-06-05T05:38:09.702Z,7.03
2018-06-05T05:40:38.338Z,7.63
2018-06-05T05:43:07.326Z,5.63
2018-06-05T05:45:36.424Z,8.00
2018-06-05T05:48:05.406Z,5.80
2018-06-05T05:50:34.286Z,8.70
2018-06-05T05:53:03.158Z,5.73
2018-06-05T05:55:32.074Z,6.70
2018-06-05T05:58:00.934Z,6.63
2018-06-05T06:00:29.798Z,6.80
2018-06-05T06:02:58.657Z,6.70
2018-06-05T06:05:27.583Z,7.03
2018-06-05T06:07:56.443Z,6.93
2018-06-05T06:10:25.286Z,11.30
2018-06-05T06:12:54.376Z,6.40
2018-06-05T06:15:23.239Z,5.50
2018-06-05T06:17:52.052Z,8.70
2018-06-05T06:20:20.697Z,6.80
2018-06-05T06:22:49.497Z,4.60
2018-06-05T06:25:18.334Z,6.03
2018-06-05T06:27:47.189Z,9.83
2018-06-05T06:30:16.029Z,5.23
2018-06-05T06:32:44.849Z,8.70
2018-06-05T06:35:13.758Z,7.10
2018-06-05T06:37:42.677Z,6.70
2018-06-05T06:40:11.546Z,5.83
2018-06-05T06:42:40.547Z,5.73
2018-06-05T06:45:09.608Z,7.27
2018-06-05T06:47:38.522Z,6.23
2018-06-05T06:50:07.424Z,6.47
2018-06-05T06:52:36.318Z,5.37
2018-06-05T06:55:07.319Z,7.33
2018-06-05T07:00:18.243Z,5.97
2018-06-05T07:02:47.571Z,4.70
2018-06-05T07:05:16.751Z,6.57
2018-06-05T07:07:45.935Z,4.80
2018-06-05T07:10:16.442Z,10.23
2018-06-05T07:12:45.623Z,5.77
2018-06-05T07:15:15.712Z,6.77
2018-06-05T07:17:46.530Z,6.07
2018-06-05T07:20:15.555Z,6.47
2018-06-05T07:22:44.415Z,8.53
2018-06-05T07:25:13.263Z,9.17
2018-06-05T07:27:42.114Z,7.50
2018-06-05T07:30:10.999Z,6.63
2018-06-05T07:32:39.827Z,5.70
2018-06-05T07:35:08.469Z,5.80
2018-06-05T07:37:37.531Z,5.53
2018-06-05T07:40:06.388Z,5.67
2018-06-05T07:42:35.270Z,6.73
2018-06-05T07:45:04.135Z,5.30
2018-06-05T07:47:32.995Z,9.47
2018-06-05T07:50:01.905Z,6.47
2018-06-05T07:52:30.742Z,4.77
2018-06-05T07:54:59.607Z,4.93
2018-06-05T07:57:28.462Z,4.83
2018-06-05T07:59:57.310Z,3.97
2018-06-05T08:02:26.172Z,5.20
2018-06-05T08:04:55.034Z,4.67
2018-06-05T08:07:23.941Z,4.87
2018-06-05T08:09:52.796Z,5.37
2018-06-05T08:12:22.387Z,6.60
2018-06-05T08:14:51.258Z,4.67
2018-06-05T08:17:20.090Z,6.03
2018-06-05T08:19:48.934Z,7.97
2018-06-05T08:22:17.789Z,4.90
2018-06-05T08:24:46.623Z,6.10
2018-06-05T08:27:15.580Z,5.30
2018-06-05T08:29:44.442Z,3.57
2018-06-05T08:32:15.695Z,4.20
2018-06-05T08:34:45.646Z,7.77
2018-06-05T08:37:14.543Z,4.80
2018-06-05T08:39:43.381Z,5.80
2018-06-05T08:42:12.280Z,3.40
2018-06-05T08:44:41.196Z,3.90
2018-06-05T08:47:10.026Z,5.73
2018-06-05T08:49:39.468Z,4.60
2018-06-05T08:52:08.310Z,3.97
2018-06-05T08:54:37.174Z,6.23
2018-06-05T08:57:05.829Z,4.87
2018-06-05T08:59:34.554Z,5.50
2018-06-05T09:02:03.384Z,4.83
2018-06-05T09:04:32.248Z,8.00
2018-06-05T09:07:01.154Z,5.90
2018-06-05T09:09:30.056Z,7.50
2018-06-05T09:11:58.896Z,4.47
2018-06-05T09:14:27.728Z,7.80
2018-06-05T09:16:56.555Z,3.50
2018-06-05T09:19:25.454Z,7.57
2018-06-05T09:21:54.403Z,5.20
2018-06-05T09:24:23.264Z,3.77
2018-06-05T09:26:52.158Z,6.60
2018-06-05T09:29:21.070Z,9.27
2018-06-05T09:31:49.928Z,6.23
2018-06-05T09:34:18.879Z,13.03
2018-06-05T09:36:47.755Z,5.33
2018-06-05T09:39:16.611Z,5.40
2018-06-05T09:41:45.502Z,5.23
2018-06-05T09:44:14.339Z,5.10
2018-06-05T09:46:43.469Z,7.17
2018-06-05T09:49:12.378Z,5.63
2018-06-05T09:51:41.243Z,4.70
2018-06-05T09:54:10.211Z,6.97
2018-06-05T09:56:39.056Z,6.73
2018-06-05T09:59:07.954Z,6.67
2018-06-05T10:01:36.815Z,6.07
2018-06-05T10:04:05.668Z,5.33
2018-06-05T10:06:34.542Z,6.73
2018-06-05T10:09:04.392Z,7.73
2018-06-05T10:11:33.359Z,4.83
2018-06-05T10:14:01.978Z,4.30
2018-06-05T10:16:30.739Z,7.23
2018-06-05T10:18:59.659Z,4.87
2018-06-05T10:21:28.518Z,3.87
2018-06-05T10:23:57.406Z,5.50
2018-06-05T10:26:26.329Z,4.77
2018-06-05T10:28:55.218Z,6.20
2018-06-05T10:31:24.098Z,6.33
2018-06-05T10:33:52.967Z,4.40
2018-06-05T10:36:21.831Z,4.47
2018-06-05T10:38:50.706Z,8.20
2018-06-05T10:41:19.570Z,7.90
2018-06-05T10:43:48.398Z,4.73
2018-06-05T10:46:17.245Z,5.07
2018-06-05T10:48:46.179Z,7.13
2018-06-05T10:51:15.054Z,4.80
2018-06-05T10:53:43.950Z,6.23
2018-06-05T10:56:12.850Z,5.47
2018-06-05T10:58:41.713Z,4.07
2018-06-05T11:01:10.598Z,5.47
2018-06-05T11:03:39.436Z,4.00
2018-06-05T11:06:08.324Z,5.70
2018-06-05T11:08:37.137Z,6.27
2018-06-05T11:11:06.003Z,7.27
2018-06-05T11:13:35.729Z,4.90
2018-06-05T11:16:05.518Z,4.10
2018-06-05T11:18:34.432Z,3.50
2018-06-05T11:21:03.291Z,4.57
2018-06-05T11:23:31.933Z,6.03
2018-06-05T11:26:00.662Z,5.17
2018-06-05T11:28:29.345Z,3.83
2018-06-05T11:30:58.057Z,6.03
2018-06-05T11:33:26.900Z,9.73
2018-06-05T11:35:55.746Z,5.30
2018-06-05T11:38:24.651Z,6.30
2018-06-05T11:40:53.498Z,6.23
2018-06-05T11:43:22.368Z,6.53
2018-06-05T11:45:51.558Z,5.03
2018-06-05T11:48:20.354Z,4.23
2018-06-05T11:50:49.072Z,5.23
2018-06-05T11:53:17.786Z,5.33
2018-06-05T11:55:46.640Z,6.63
2018-06-05T11:58:15.514Z,3.93
2018-06-05T12:00:44.425Z,8.50
2018-06-05T12:03:13.034Z,7.17
2018-06-05T12:05:41.788Z,5.87
2018-06-05T12:08:10.846Z,6.50
2018-06-05T12:10:39.735Z,4.07
2018-06-05T12:13:08.606Z,3.67
2018-06-05T12:15:37.502Z,6.70
2018-06-05T12:18:06.377Z,4.20
2018-06-05T12:20:35.297Z,5.40
2018-06-05T12:23:04.182Z,3.83
2018-06-05T12:25:33.049Z,7.60
2018-06-05T12:28:01.928Z,6.27
2018-06-05T12:30:30.854Z,7.53
2018-06-05T12:32:59.759Z,4.87
2018-06-05T12:35:28.606Z,7.53
2018-06-05T12:37:57.545Z,5.77
2018-06-05T12:40:26.469Z,5.40
2018-06-05T12:42:55.334Z,4.43
2018-06-05T12:45:24.211Z,5.47
2018-06-05T12:47:53.070Z,6.70
2018-06-05T12:50:21.941Z,5.85
2018-06-05T12:52:50.960Z,6.17
2018-06-05T12:55:19.780Z,6.93
2018-06-05T12:57:48.641Z,5.07
2018-06-05T13:00:17.495Z,6.07
2018-06-05T13:02:46.362Z,5.17
2018-06-05T13:05:15.307Z,6.73
2018-06-05T13:07:44.178Z,5.40
2018-06-05T13:10:13.071Z,5.13
2018-06-05T13:12:41.962Z,7.53
2018-06-05T13:15:10.867Z,5.00
2018-06-05T13:17:39.848Z,6.73
2018-06-05T13:20:09.343Z,4.60
2018-06-05T13:22:38.377Z,5.30
2018-06-05T13:25:07.469Z,5.50
2018-06-05T13:27:36.520Z,5.30
2018-06-05T13:30:05.483Z,7.30
2018-06-05T13:32:34.440Z,5.43
2018-06-05T13:35:03.174Z,9.10
2018-06-05T13:37:32.053Z,8.93
2018-06-05T13:40:00.883Z,5.17
2018-06-05T13:42:29.839Z,5.43
2018-06-05T13:44:59.150Z,5.80
2018-06-05T13:47:28.271Z,4.50
2018-06-05T13:49:57.151Z,7.23
2018-06-05T13:52:26.547Z,4.47
2018-06-05T13:54:55.399Z,4.27
2018-06-05T13:57:24.320Z,4.83
2018-06-05T13:59:53.182Z,8.17
2018-06-05T14:02:22.051Z,6.07
2018-06-05T14:04:50.956Z,8.37
2018-06-05T14:07:19.830Z,6.90
2018-06-05T14:09:48.688Z,4.80
2018-06-05T14:12:17.538Z,4.43
2018-06-05T14:14:46.439Z,5.57
2018-06-05T14:17:15.255Z,5.40
2018-06-05T14:19:44.166Z,5.63
2018-06-05T14:22:12.797Z,7.77
2018-06-05T14:24:41.530Z,5.43
2018-06-05T14:27:10.166Z,5.77
2018-06-05T14:29:39.073Z,6.00
2018-06-05T14:32:08.013Z,5.17
2018-06-05T14:34:36.867Z,8.07
2018-06-05T14:37:05.759Z,7.47
2018-06-05T14:39:34.695Z,5.50
2018-06-05T14:42:03.634Z,5.10
2018-06-05T14:44:32.563Z,4.30
2018-06-05T14:47:01.615Z,7.23
2018-06-05T14:49:30.495Z,5.87
2018-06-05T14:51:59.411Z,6.67
2018-06-05T14:54:28.334Z,6.17
2018-06-05T14:56:57.316Z,5.57
2018-06-05T14:59:26.162Z,5.93
2018-06-05T15:01:55.017Z,7.10
2018-06-05T15:04:23.874Z,7.57
2018-06-05T15:06:53.556Z,4.67
2018-06-05T15:09:22.427Z,7.67
2018-06-05T15:11:51.391Z,8.90
2018-06-05T15:14:21.504Z,9.53
2018-06-05T15:16:50.387Z,4.80
2018-06-05T15:19:19.301Z,9.47
2018-06-05T15:21:48.258Z,5.70
2018-06-05T15:24:17.143Z,6.20
2018-06-05T15:26:45.991Z,12.60
2018-06-05T15:29:14.842Z,13.90
2018-06-05T15:31:43.722Z,17.23
2018-06-05T15:34:12.640Z,13.80
2018-06-05T15:36:41.442Z,12.63
2018-06-05T15:39:10.290Z,13.60
2018-06-05T15:41:39.141Z,11.60
2018-06-05T15:44:09.246Z,18.20
2018-06-05T15:46:38.379Z,17.70
2018-06-05T15:49:07.231Z,21.13
2018-06-05T15:51:36.114Z,16.73
2018-06-05T15:54:05.351Z,16.23
2018-06-05T15:56:34.362Z,15.00
2018-06-05T15:59:03.231Z,16.17
2018-06-05T16:01:32.104Z,20.80
2018-06-05T16:04:01.150Z,13.23
2018-06-05T16:06:30.036Z,13.10
2018-06-05T16:08:58.859Z,14.17
2018-06-05T16:11:27.731Z,16.43
2018-06-05T16:13:56.581Z,19.57
2018-06-05T16:16:25.519Z,15.53
2018-06-05T16:18:54.362Z,12.17
2018-06-05T16:21:23.223Z,16.87
2018-06-05T16:23:51.858Z,17.70
2018-06-05T16:26:20.699Z,11.97
2018-06-05T16:28:49.490Z,20.73
2018-06-05T16:31:18.354Z,18.33
2018-06-05T16:33:47.212Z,15.23
2018-06-05T16:36:16.075Z,14.00
2018-06-05T16:38:45.027Z,15.90
2018-06-05T16:41:13.902Z,12.93
2018-06-05T16:43:42.919Z,12.83
2018-06-05T16:46:11.804Z,12.23
2018-06-05T16:48:40.744Z,13.57
2018-06-05T16:51:09.606Z,13.83
2018-06-05T16:53:38.547Z,16.20
2018-06-05T16:56:07.270Z,12.80
2018-06-05T16:58:35.952Z,11.53
2018-06-05T17:01:04.658Z,8.80
2018-06-05T17:03:33.650Z,15.33
2018-06-05T17:06:02.495Z,12.73
2018-06-05T17:08:31.669Z,14.23
2018-06-05T17:11:00.532Z,8.53
2018-06-05T17:13:29.774Z,16.47
2018-06-05T17:15:58.832Z,16.17
2018-06-05T17:18:27.678Z,13.13
2018-06-05T17:20:56.398Z,18.23
2018-06-05T17:23:25.151Z,15.67
2018-06-05T17:25:54.088Z,16.63
2018-06-05T17:28:22.930Z,12.70
2018-06-05T17:30:51.774Z,16.97
2018-06-05T17:33:20.630Z,15.30
2018-06-05T17:35:49.601Z,15.23
2018-06-05T17:38:18.438Z,21.50
2018-06-05T17:40:47.279Z,12.27
2018-06-05T17:43:15.926Z,19.50
2018-06-05T17:45:44.665Z,13.67
2018-06-05T17:48:13.518Z,20.67
2018-06-05T17:50:42.405Z,12.33
2018-06-05T17:53:11.299Z,26.10
2018-06-05T17:55:40.161Z,14.83
2018-06-05T17:58:09.002Z,16.50
2018-06-05T18:00:37.611Z,18.20
2018-06-05T18:03:06.338Z,21.10
2018-06-05T18:05:35.162Z,21.60
2018-06-05T18:08:04.022Z,15.10
2018-06-05T18:10:32.882Z,14.30
2018-06-05T18:13:01.751Z,21.90
2018-06-05T18:15:30.591Z,21.57
2018-06-05T18:17:59.410Z,19.17
2018-06-05T18:20:28.315Z,22.63
2018-06-05T18:22:57.180Z,21.97
2018-06-05T18:25:26.020Z,19.77
2018-06-05T18:27:54.844Z,20.87
2018-06-05T18:30:23.687Z,22.20
2018-06-05T18:32:52.599Z,19.93
2018-06-05T18:35:21.443Z,22.40
2018-06-05T18:37:50.272Z,20.00
2018-06-05T18:40:19.128Z,19.60
2018-06-05T18:42:47.951Z,23.30
2018-06-05T18:45:16.794Z,14.47
2018-06-05T18:47:45.874Z,21.57
2018-06-05T18:50:14.734Z,25.37
2018-06-05T18:52:43.578Z,21.40
2018-06-05T18:55:12.524Z,27.50
2018-06-05T18:57:41.362Z,22.53
2018-06-05T19:00:10.279Z,26.33
2018-06-05T19:02:39.307Z,21.73
2018-06-05T19:05:08.232Z,25.73
2018-06-05T19:07:37.103Z,28.67
2018-06-05T19:10:06.040Z,19.93
2018-06-05T19:12:34.959Z,23.30
2018-06-05T19:15:03.843Z,20.37
2018-06-05T19:17:32.768Z,25.97
2018-06-05T19:20:01.626Z,32.83
2018-06-05T19:22:30.526Z,17.87
2018-06-05T19:24:59.418Z,21.13
2018-06-05T19:27:28.861Z,21.63
2018-06-05T19:29:57.833Z,32.93
2018-06-05T19:32:26.678Z,33.73
2018-06-05T19:34:55.686Z,28.13
2018-06-05T19:37:24.752Z,25.83
2018-06-05T19:39:54.289Z,26.17
2018-06-05T19:42:23.224Z,30.50
2018-06-05T19:44:52.107Z,18.87
2018-06-05T19:47:21.038Z,26.93
2018-06-05T19:49:50.289Z,18.70
2018-06-05T19:52:19.374Z,23.83
2018-06-05T19:54:48.369Z,19.23
2018-06-05T19:57:17.430Z,29.50
2018-06-05T19:59:46.291Z,19.07
2018-06-05T20:02:15.233Z,35.90
2018-06-05T20:04:43.936Z,24.47
2018-06-05T20:07:12.669Z,26.47
2018-06-05T20:09:41.553Z,26.73
2018-06-05T20:12:10.410Z,33.90
2018-06-05T20:14:39.354Z,21.27
2018-06-05T20:17:08.237Z,19.43
2018-06-05T20:19:37.063Z,30.03
2018-06-05T20:22:05.923Z,25.73
2018-06-05T20:24:34.550Z,25.97
2018-06-05T20:27:03.286Z,28.40
2018-06-05T20:29:31.940Z,28.40
2018-06-05T20:32:00.670Z,31.37
2018-06-05T20:34:29.530Z,28.40
2018-06-05T20:36:59.014Z,39.30
2018-06-05T20:39:27.904Z,31.77
2018-06-05T20:41:56.856Z,29.57
2018-06-05T20:44:25.714Z,31.43
2018-06-05T20:46:54.573Z,31.07
2018-06-05T20:49:23.478Z,23.57
2018-06-05T20:51:52.345Z,22.17
2018-06-05T20:54:21.271Z,24.77
2018-06-05T20:56:50.379Z,26.57
2018-06-05T20:59:19.258Z,30.13
2018-06-05T21:01:48.106Z,30.30
2018-06-05T21:04:17.291Z,29.03
2018-06-05T21:06:46.151Z,29.33
2018-06-05T21:09:15.003Z,30.23
2018-06-05T21:11:43.961Z,31.50
2018-06-05T21:14:13.156Z,25.07
2018-06-05T21:16:42.031Z,25.70
2018-06-05T21:19:11.240Z,28.93
2018-06-05T21:21:40.144Z,24.57
2018-06-05T21:24:09.076Z,31.43
2018-06-05T21:26:38.019Z,27.90
2018-06-05T21:29:06.902Z,27.17
2018-06-05T21:31:35.775Z,25.93
2018-06-05T21:34:04.663Z,23.80
2018-06-05T21:36:33.579Z,27.63
2018-06-05T21:39:02.460Z,28.97
2018-06-05T21:41:31.320Z,30.20
2018-06-05T21:43:59.973Z,26.83
2018-06-05T21:46:28.707Z,24.57
2018-06-05T21:48:57.583Z,27.53
2018-06-05T21:51:26.418Z,26.37
2018-06-05T21:53:55.288Z,28.97
2018-06-05T21:56:24.116Z,27.17
2018-06-05T21:58:52.954Z,26.07
2018-06-05T22:01:21.833Z,32.97
2018-06-05T22:03:50.678Z,23.47
2018-06-05T22:06:19.534Z,34.20
2018-06-05T22:08:48.396Z,43.17
2018-06-05T22:11:17.009Z,36.93
2018-06-05T22:13:45.723Z,30.53
2018-06-05T22:16:14.758Z,24.73
2018-06-05T22:18:43.619Z,30.37
2018-06-05T22:21:12.438Z,26.77
2018-06-05T22:23:41.322Z,34.60
2018-06-05T22:26:10.194Z,29.67
2018-06-05T22:28:39.040Z,31.80
2018-06-05T22:31:07.930Z,16.23
2018-06-05T22:33:36.762Z,13.67
2018-06-05T22:36:05.375Z,12.60
2018-06-05T22:38:34.070Z,20.27
2018-06-05T22:41:02.893Z,16.67
2018-06-05T22:43:31.723Z,18.90
2018-06-05T22:46:00.588Z,14.27
2018-06-05T22:48:29.399Z,7.07
2018-06-05T22:50:58.301Z,10.67
2018-06-05T22:53:27.115Z,10.77
2018-06-05T22:55:56.045Z,13.43
2018-06-05T22:58:24.849Z,13.67
2018-06-05T23:00:53.689Z,12.00
2018-06-05T23:03:22.504Z,13.57
2018-06-05T23:05:51.335Z,11.33
2018-06-05T23:08:20.158Z,9.03
2018-06-05T23:10:49.180Z,11.17
2018-06-05T23:13:17.788Z,16.27
2018-06-05T23:15:46.479Z,11.33
2018-06-05T23:18:15.299Z,7.97
2018-06-05T23:20:44.131Z,12.57
2018-06-05T23:23:12.954Z,11.13
2018-06-05T23:25:41.766Z,11.87
2018-06-05T23:28:10.630Z,12.90
2018-06-05T23:30:39.449Z,12.70
2018-06-05T23:33:08.273Z,8.23
2018-06-05T23:35:36.886Z,7.70
2018-06-05T23:38:05.570Z,11.17
2018-06-05T23:40:34.382Z,8.60
2018-06-05T23:43:03.238Z,13.00
2018-06-05T23:45:32.074Z,11.13
2018-06-05T23:48:00.886Z,11.03
2018-06-05T23:50:29.750Z,10.13
2018-06-05T23:52:58.569Z,15.90
2018-06-05T23:55:27.379Z,6.60
2018-06-05T23:57:56.226Z,6.40
